createdAt,value
2023-04-07T00:02:08.282Z,57.30
2023-04-07T00:04:36.682Z,57.40
2023-04-07T00:07:05.192Z,57.30
2023-04-07T00:09:33.494Z,57.30
2023-04-07T00:12:02.907Z,57.40
2023-04-07T00:14:31.321Z,57.40
2023-04-07T00:16:59.817Z,57.40
2023-04-07T00:19:29.547Z,57.50
2023-04-07T00:21:57.863Z,57.50
2023-04-07T00:24:33.817Z,57.60
2023-04-07T00:27:02.992Z,57.60
2023-04-07T00:29:31.442Z,57.60
2023-04-07T00:31:59.799Z,57.60
2023-04-07T00:34:29.597Z,57.70
2023-04-07T00:36:57.956Z,57.60
2023-04-07T00:39:27.722Z,57.60
2023-04-07T00:41:56.567Z,57.60
2023-04-07T00:44:24.971Z,57.60
2023-04-07T00:46:53.412Z,57.70
2023-04-07T00:49:21.887Z,57.70
2023-04-07T00:51:51.687Z,57.60
2023-04-07T00:54:20.888Z,57.60
2023-04-07T00:56:49.285Z,57.50
2023-04-07T00:59:17.834Z,57.50
2023-04-07T01:01:49.388Z,57.50
2023-04-07T01:04:25.965Z,57.50
2023-04-07T01:07:00.498Z,57.50
2023-04-07T01:09:36.940Z,57.50
2023-04-07T01:12:11.376Z,57.60
2023-04-07T01:14:53.208Z,57.70
2023-04-07T01:17:24.633Z,57.90
2023-04-07T01:19:59.632Z,57.80
2023-04-07T01:22:34.781Z,57.80
2023-04-07T01:25:19.360Z,57.90
2023-04-07T01:28:02.167Z,57.90
2023-04-07T01:30:34.358Z,57.80
2023-04-07T01:33:03.684Z,57.80
2023-04-07T01:35:36.056Z,57.90
2023-04-07T01:38:05.045Z,58.20
2023-04-07T01:40:35.205Z,58.30
2023-04-07T01:43:04.004Z,58.50
2023-04-07T01:45:35.708Z,58.30
2023-04-07T01:48:06.660Z,58.30
2023-04-07T01:50:35.700Z,58.40
2023-04-07T01:53:06.211Z,58.90
2023-04-07T01:55:34.827Z,59.40
2023-04-07T01:58:06.877Z,59.50
2023-04-07T02:00:36.934Z,59.30
2023-04-07T02:03:11.398Z,59.20
2023-04-07T02:05:41.053Z,59.40
2023-04-07T02:08:12.232Z,59.50
2023-04-07T02:10:41.012Z,59.50
2023-04-07T02:13:11.708Z,59.50
2023-04-07T02:15:42.679Z,59.40
2023-04-07T02:18:13.081Z,59.40
2023-04-07T02:20:43.696Z,59.40
2023-04-07T02:23:12.105Z,59.30
2023-04-07T02:25:40.477Z,59.30
2023-04-07T02:28:08.848Z,59.30
2023-04-07T02:30:37.475Z,59.40
2023-04-07T02:33:07.317Z,59.30
2023-04-07T02:35:35.728Z,59.30
2023-04-07T02:38:04.049Z,59.40
2023-04-07T02:40:32.491Z,59.30
2023-04-07T02:43:00.922Z,59.30
2023-04-07T02:45:29.267Z,59.60
2023-04-07T02:47:57.664Z,60.40
2023-04-07T02:50:29.244Z,59.70
2023-04-07T02:52:57.810Z,59.70
2023-04-07T02:55:26.136Z,59.50
2023-04-07T02:57:54.513Z,59.60
2023-04-07T03:00:22.890Z,59.70
2023-04-07T03:02:51.684Z,59.90
2023-04-07T03:05:20.513Z,59.90
2023-04-07T03:07:50.255Z,59.90
2023-04-07T03:10:18.956Z,60.10
2023-04-07T03:12:47.307Z,60.10
2023-04-07T03:15:17.090Z,60.20
2023-04-07T03:17:47.140Z,60.10
2023-04-07T03:20:15.589Z,60.10
2023-04-07T03:22:44.748Z,60.10
2023-04-07T03:25:14.723Z,60.40
2023-04-07T03:27:43.089Z,60.40
2023-04-07T03:30:12.453Z,60.20
2023-04-07T03:32:40.968Z,60.50
2023-04-07T03:35:10.301Z,60.60
2023-04-07T03:37:38.651Z,60.80
2023-04-07T03:40:08.496Z,60.90
2023-04-07T03:42:38.281Z,60.90
2023-04-07T03:45:07.999Z,61.00
2023-04-07T03:47:36.418Z,61.00
2023-04-07T03:50:05.154Z,61.00
2023-04-07T03:52:33.457Z,61.10
2023-04-07T03:55:01.884Z,61.10
2023-04-07T03:57:30.261Z,61.20
2023-04-07T04:00:00.494Z,61.30
2023-04-07T04:02:28.991Z,61.30
2023-04-07T04:04:57.735Z,62.20
2023-04-07T04:07:27.431Z,61.40
2023-04-07T04:09:56.212Z,61.40
2023-04-07T04:12:24.539Z,61.30
2023-04-07T04:14:52.847Z,61.40
2023-04-07T04:17:22.642Z,61.40
2023-04-07T04:19:51.284Z,61.50
2023-04-07T04:22:19.823Z,61.60
2023-04-07T04:24:48.177Z,61.50
2023-04-07T04:27:16.668Z,61.50
2023-04-07T04:29:45.056Z,61.70
2023-04-07T04:32:13.404Z,61.80
2023-04-07T04:34:43.265Z,61.90
2023-04-07T04:37:13.034Z,61.70
2023-04-07T04:39:41.484Z,61.90
2023-04-07T04:42:09.845Z,61.90
2023-04-07T04:44:38.224Z,62.00
2023-04-07T04:47:06.637Z,62.10
2023-04-07T04:49:34.999Z,62.10
2023-04-07T04:52:04.804Z,62.00
2023-04-07T04:54:33.252Z,62.00
2023-04-07T04:57:01.807Z,62.10
2023-04-07T04:59:30.153Z,62.20
2023-04-07T05:01:58.573Z,62.10
2023-04-07T05:04:28.591Z,62.10
2023-04-07T05:06:57.359Z,62.90
2023-04-07T05:09:27.530Z,62.20
2023-04-07T05:11:55.965Z,62.20
2023-04-07T05:14:24.294Z,62.30
2023-04-07T05:16:53.062Z,62.40
2023-04-07T05:19:21.543Z,62.60
2023-04-07T05:21:49.899Z,62.60
2023-04-07T05:24:18.216Z,62.60
2023-04-07T05:26:48.062Z,62.70
2023-04-07T05:29:16.521Z,62.60
2023-04-07T05:31:44.905Z,62.80
2023-04-07T05:34:13.259Z,62.80
2023-04-07T05:36:42.006Z,63.00
2023-04-07T05:39:10.319Z,62.90
2023-04-07T05:41:38.848Z,62.90
2023-04-07T05:44:08.657Z,63.00
2023-04-07T05:46:37.013Z,63.10
2023-04-07T05:49:19.004Z,63.20
2023-04-07T05:51:49.353Z,63.40
2023-04-07T05:54:17.968Z,63.40
2023-04-07T05:56:46.310Z,63.30
2023-04-07T05:59:16.099Z,63.40
2023-04-07T06:01:44.469Z,63.60
2023-04-07T06:04:12.881Z,63.90
2023-04-07T06:06:41.419Z,64.10
2023-04-07T06:09:09.798Z,65.00
2023-04-07T06:11:38.272Z,64.70
2023-04-07T06:14:06.874Z,64.90
2023-04-07T06:16:36.801Z,65.10
2023-04-07T06:19:05.520Z,65.20
2023-04-07T06:21:33.998Z,65.40
2023-04-07T06:24:02.331Z,65.60
2023-04-07T06:26:30.891Z,65.70
2023-04-07T06:28:59.994Z,65.80
2023-04-07T06:31:28.348Z,65.70
2023-04-07T06:33:58.135Z,65.50
2023-04-07T06:36:27.742Z,65.20
2023-04-07T06:38:56.305Z,65.30
2023-04-07T06:41:24.669Z,65.40
2023-04-07T06:43:53.101Z,65.10
2023-04-07T06:46:21.855Z,65.00
2023-04-07T06:48:50.140Z,65.10
2023-04-07T06:51:20.034Z,65.20
2023-04-07T06:53:49.049Z,65.60
2023-04-07T06:56:17.687Z,66.30
2023-04-07T06:58:46.140Z,66.70
2023-04-07T07:01:14.535Z,66.70
2023-04-07T07:03:43.103Z,66.50
2023-04-07T07:06:11.508Z,66.20
2023-04-07T07:08:41.331Z,65.80
2023-04-07T07:11:09.694Z,65.80
2023-04-07T07:13:38.444Z,65.80
2023-04-07T07:16:07.511Z,66.50
2023-04-07T07:18:37.254Z,66.80
2023-04-07T07:21:06.179Z,66.90
2023-04-07T07:23:34.775Z,67.40
2023-04-07T07:26:04.939Z,66.90
2023-04-07T07:28:33.283Z,66.80
2023-04-07T07:31:01.622Z,67.10
2023-04-07T07:33:30.995Z,67.50
2023-04-07T07:35:59.315Z,68.00
2023-04-07T07:38:28.391Z,68.50
2023-04-07T07:40:56.764Z,69.10
2023-04-07T07:43:26.624Z,69.30
2023-04-07T07:45:55.025Z,69.50
2023-04-07T07:48:23.422Z,69.70
2023-04-07T07:50:52.503Z,70.30
2023-04-07T07:53:20.976Z,70.30
2023-04-07T07:55:50.618Z,70.70
2023-04-07T07:58:19.025Z,70.40
2023-04-07T08:00:48.803Z,70.80
2023-04-07T08:03:19.803Z,70.30
2023-04-07T08:05:49.738Z,69.50
2023-04-07T08:08:18.167Z,69.50
2023-04-07T08:10:46.488Z,69.50
2023-04-07T08:13:14.828Z,69.10
2023-04-07T08:15:43.371Z,68.90
2023-04-07T08:18:13.336Z,68.60
2023-04-07T08:20:41.752Z,67.90
2023-04-07T08:23:10.149Z,67.60
2023-04-07T08:25:40.107Z,67.30
2023-04-07T08:28:08.400Z,67.40
2023-04-07T08:30:36.762Z,67.40
2023-04-07T08:33:06.917Z,67.20
2023-04-07T08:35:36.839Z,66.90
2023-04-07T08:38:05.924Z,67.10
2023-04-07T08:40:34.939Z,67.20
2023-04-07T08:43:07.845Z,67.60
2023-04-07T08:45:39.805Z,67.50
2023-04-07T08:48:17.764Z,67.40
2023-04-07T08:50:52.808Z,67.50
2023-04-07T08:53:25.889Z,67.70
2023-04-07T08:55:55.130Z,68.10
2023-04-07T08:58:23.819Z,67.60
2023-04-07T09:00:52.849Z,67.20
2023-04-07T09:03:22.299Z,67.50
2023-04-07T09:05:52.567Z,67.90
2023-04-07T09:08:21.107Z,68.60
2023-04-07T09:10:49.586Z,68.90
2023-04-07T09:13:18.011Z,68.10
2023-04-07T09:15:47.144Z,66.60
2023-04-07T09:18:16.584Z,65.80
2023-04-07T09:20:58.915Z,64.70
2023-04-07T09:23:31.733Z,65.10
2023-04-07T09:26:03.825Z,65.50
2023-04-07T09:28:43.878Z,65.90
2023-04-07T09:31:12.245Z,66.30
2023-04-07T09:33:40.714Z,66.00
2023-04-07T09:36:10.746Z,66.10
2023-04-07T09:38:41.080Z,66.50
2023-04-07T09:41:11.492Z,66.90
2023-04-07T09:43:41.342Z,66.50
2023-04-07T09:46:14.628Z,65.90
2023-04-07T09:48:44.931Z,65.60
2023-04-07T09:51:16.961Z,65.70
2023-04-07T09:53:48.095Z,66.30
2023-04-07T09:56:18.268Z,65.40
2023-04-07T09:58:48.030Z,65.00
2023-04-07T10:01:18.188Z,65.10
2023-04-07T10:03:48.434Z,64.80
2023-04-07T10:06:18.908Z,64.30
2023-04-07T10:08:47.704Z,64.10
2023-04-07T10:11:18.332Z,63.90
2023-04-07T10:13:47.461Z,63.20
2023-04-07T10:16:16.464Z,62.90
2023-04-07T10:18:46.513Z,62.70
2023-04-07T10:21:18.284Z,63.30
2023-04-07T10:23:55.734Z,64.10
2023-04-07T10:26:27.818Z,65.80
2023-04-07T10:29:01.800Z,66.20
2023-04-07T10:31:30.681Z,66.40
2023-04-07T10:33:59.183Z,66.90
2023-04-07T10:36:29.026Z,67.10
2023-04-07T10:39:24.255Z,67.50
2023-04-07T10:41:53.396Z,67.80
2023-04-07T10:44:48.292Z,68.40
2023-04-07T10:47:16.861Z,68.80
2023-04-07T10:50:18.445Z,68.60
2023-04-07T10:52:47.955Z,68.80
2023-04-07T10:55:47.503Z,69.30
2023-04-07T10:58:26.304Z,70.40
2023-04-07T11:01:23.378Z,69.80
2023-04-07T11:04:00.181Z,69.70
2023-04-07T11:06:28.876Z,69.50
2023-04-07T11:08:57.441Z,69.80
2023-04-07T11:11:43.634Z,70.10
2023-04-07T11:14:12.001Z,70.20
2023-04-07T11:16:42.852Z,70.20
2023-04-07T11:19:11.446Z,70.40
2023-04-07T11:21:40.209Z,70.40
2023-04-07T11:24:08.552Z,70.10
2023-04-07T11:26:42.788Z,70.20
2023-04-07T11:29:12.914Z,70.60
2023-04-07T11:31:41.697Z,70.40
2023-04-07T11:34:10.304Z,70.80
2023-04-07T11:36:41.237Z,70.60
2023-04-07T11:39:20.531Z,70.90
2023-04-07T11:41:51.727Z,68.60
2023-04-07T11:44:20.175Z,67.00
2023-04-07T11:46:55.949Z,65.40
2023-04-07T11:49:25.224Z,65.90
2023-04-07T11:52:00.995Z,65.60
2023-04-07T11:54:29.470Z,66.10
2023-04-07T11:56:59.265Z,66.20
2023-04-07T11:59:28.770Z,64.80
2023-04-07T12:01:57.982Z,64.70
2023-04-07T12:04:26.854Z,65.20
2023-04-07T12:06:55.327Z,64.60
2023-04-07T12:09:29.468Z,63.50
2023-04-07T12:11:59.722Z,63.40
2023-04-07T12:14:28.829Z,63.40
2023-04-07T12:16:58.346Z,64.40
2023-04-07T12:19:28.640Z,65.00
2023-04-07T12:21:57.669Z,64.50
2023-04-07T12:24:26.008Z,64.80
2023-04-07T12:26:54.426Z,65.50
2023-04-07T12:29:24.314Z,65.80
2023-04-07T12:31:52.664Z,65.60
2023-04-07T12:34:21.092Z,65.70
2023-04-07T12:36:49.437Z,65.70
2023-04-07T12:39:18.003Z,66.10
2023-04-07T12:41:47.877Z,66.50
2023-04-07T12:44:16.764Z,66.20
2023-04-07T12:46:47.124Z,66.60
2023-04-07T12:49:16.794Z,66.20
2023-04-07T12:51:45.245Z,67.00
2023-04-07T12:54:13.622Z,65.90
2023-04-07T12:56:42.334Z,65.20
2023-04-07T12:59:10.626Z,65.10
2023-04-07T13:01:39.153Z,65.40
2023-04-07T13:04:09.114Z,64.50
2023-04-07T13:06:37.531Z,64.90
2023-04-07T13:09:06.067Z,64.30
2023-04-07T13:11:34.401Z,64.60
2023-04-07T13:14:02.762Z,65.00
2023-04-07T13:16:31.514Z,64.70
2023-04-07T13:18:59.867Z,64.10
2023-04-07T13:21:45.260Z,64.50
2023-04-07T13:24:14.915Z,63.60
2023-04-07T13:26:43.381Z,63.20
2023-04-07T13:29:11.743Z,62.80
2023-04-07T13:31:40.148Z,61.00
2023-04-07T13:34:08.682Z,61.00
2023-04-07T13:36:38.427Z,61.10
2023-04-07T13:39:06.865Z,60.50
2023-04-07T13:41:35.470Z,60.70
2023-04-07T13:44:03.848Z,60.40
2023-04-07T13:46:32.203Z,59.50
2023-04-07T13:49:00.802Z,57.80
2023-04-07T13:51:29.456Z,57.40
2023-04-07T13:53:59.267Z,57.60
2023-04-07T13:56:27.659Z,57.20
2023-04-07T13:58:56.231Z,57.10
2023-04-07T14:01:24.628Z,56.50
2023-04-07T14:03:53.669Z,55.90
2023-04-07T14:06:23.017Z,55.80
2023-04-07T14:08:51.849Z,55.50
2023-04-07T14:11:22.246Z,54.20
2023-04-07T14:13:51.939Z,54.70
2023-04-07T14:16:20.335Z,55.50
2023-04-07T14:18:49.568Z,56.30
2023-04-07T14:21:17.879Z,56.50
2023-04-07T14:23:46.286Z,57.10
2023-04-07T14:26:14.853Z,57.40
2023-04-07T14:28:44.646Z,57.80
2023-04-07T14:31:16.980Z,57.90
2023-04-07T14:33:46.263Z,57.70
2023-04-07T14:36:17.555Z,57.90
2023-04-07T14:38:45.940Z,58.20
2023-04-07T14:41:14.469Z,58.40
2023-04-07T14:43:44.364Z,58.30
2023-04-07T14:46:15.088Z,58.30
2023-04-07T14:48:45.569Z,58.10
2023-04-07T14:51:14.340Z,58.30
2023-04-07T14:53:43.475Z,58.40
2023-04-07T14:56:11.841Z,58.50
2023-04-07T14:58:40.866Z,59.50
2023-04-07T15:01:10.819Z,59.30
2023-04-07T15:03:39.384Z,58.90
2023-04-07T15:06:11.590Z,58.50
2023-04-07T15:08:40.566Z,58.80
2023-04-07T15:11:09.499Z,59.20
2023-04-07T15:13:38.487Z,59.40
2023-04-07T15:16:13.596Z,60.20
2023-04-07T15:18:44.674Z,60.60
2023-04-07T15:21:13.795Z,60.40
2023-04-07T15:23:42.854Z,60.60
2023-04-07T15:26:11.685Z,61.10
2023-04-07T15:28:40.030Z,61.60
2023-04-07T15:31:09.992Z,62.30
2023-04-07T15:33:41.212Z,62.20
2023-04-07T15:36:10.174Z,62.00
2023-04-07T15:38:40.555Z,61.70
2023-04-07T15:41:09.086Z,61.00
2023-04-07T15:43:37.959Z,61.00
2023-04-07T15:46:06.378Z,61.00
2023-04-07T15:48:34.820Z,61.00
2023-04-07T15:51:04.639Z,60.80
2023-04-07T15:53:33.011Z,60.90
2023-04-07T15:56:01.495Z,62.50
2023-04-07T15:58:29.812Z,62.60
2023-04-07T16:00:58.242Z,62.40
2023-04-07T16:03:28.435Z,61.90
2023-04-07T16:05:57.145Z,62.70
2023-04-07T16:08:26.975Z,62.90
2023-04-07T16:10:55.401Z,64.00
2023-04-07T16:13:23.780Z,65.30
2023-04-07T16:15:56.264Z,66.70
2023-04-07T16:18:24.626Z,67.10
2023-04-07T16:20:53.059Z,67.50
2023-04-07T16:23:21.531Z,67.60
2023-04-07T16:25:51.346Z,67.60
2023-04-07T16:28:19.705Z,67.80
2023-04-07T16:30:48.047Z,67.60
2023-04-07T16:33:16.503Z,67.00
2023-04-07T16:35:44.888Z,66.20
2023-04-07T16:38:13.959Z,65.40
2023-04-07T16:40:47.849Z,65.10
2023-04-07T16:43:23.287Z,65.30
2023-04-07T16:45:52.258Z,65.10
2023-04-07T16:48:21.057Z,65.40
2023-04-07T16:50:49.395Z,65.40
2023-04-07T16:53:18.863Z,65.40
2023-04-07T16:55:47.267Z,65.20
2023-04-07T16:58:19.111Z,64.80
2023-04-07T17:00:48.879Z,65.20
2023-04-07T17:03:17.557Z,65.50
2023-04-07T17:05:47.198Z,65.20
2023-04-07T17:08:16.196Z,64.90
2023-04-07T17:10:44.518Z,64.10
2023-04-07T17:13:12.815Z,64.00
2023-04-07T17:15:41.235Z,64.10
2023-04-07T17:18:11.037Z,64.50
2023-04-07T17:20:39.932Z,64.30
2023-04-07T17:23:09.365Z,64.10
2023-04-07T17:25:37.920Z,64.10
2023-04-07T17:28:06.280Z,64.50
2023-04-07T17:30:34.625Z,64.70
2023-04-07T17:33:03.794Z,65.30
2023-04-07T17:35:33.564Z,66.10
2023-04-07T17:38:03.276Z,69.90
2023-04-07T17:40:31.911Z,70.80
2023-04-07T17:43:00.701Z,71.60
2023-04-07T17:45:29.156Z,72.10
2023-04-07T17:47:57.645Z,73.10
2023-04-07T17:50:26.011Z,74.10
2023-04-07T17:52:55.818Z,75.30
2023-04-07T17:55:24.102Z,75.90
2023-04-07T17:57:52.845Z,77.10
2023-04-07T18:00:22.963Z,77.90
2023-04-07T18:02:51.473Z,78.60
2023-04-07T18:05:20.611Z,78.80
2023-04-07T18:07:49.405Z,79.00
2023-04-07T18:10:19.941Z,79.30
2023-04-07T18:12:48.217Z,79.20
2023-04-07T18:15:16.872Z,79.10
2023-04-07T18:17:45.320Z,79.80
2023-04-07T18:20:14.170Z,79.60
2023-04-07T18:22:42.543Z,79.80
2023-04-07T18:25:11.511Z,80.50
2023-04-07T18:27:41.465Z,80.60
2023-04-07T18:30:10.934Z,81.70
2023-04-07T18:32:39.392Z,81.80
2023-04-07T18:35:08.888Z,82.40
2023-04-07T18:37:37.920Z,83.00
2023-04-07T18:40:08.272Z,83.50
2023-04-07T18:42:36.604Z,84.20
2023-04-07T18:45:07.732Z,84.80
2023-04-07T18:47:36.159Z,85.80
2023-04-07T18:50:05.157Z,85.30
2023-04-07T18:52:33.496Z,85.70
2023-04-07T18:55:01.930Z,86.00
2023-04-07T18:57:30.542Z,86.20
2023-04-07T18:59:58.878Z,86.00
2023-04-07T19:02:28.778Z,86.20
2023-04-07T19:04:57.234Z,86.30
2023-04-07T19:07:25.676Z,86.40
2023-04-07T19:09:54.019Z,86.80
2023-04-07T19:12:22.381Z,87.50
2023-04-07T19:14:50.762Z,88.20
2023-04-07T19:17:19.257Z,88.80
2023-04-07T19:19:49.380Z,89.30
2023-04-07T19:22:17.767Z,89.60
2023-04-07T19:24:46.104Z,90.00
2023-04-07T19:27:14.813Z,90.10
2023-04-07T19:29:43.167Z,90.30
2023-04-07T19:32:11.440Z,90.40
2023-04-07T19:34:39.895Z,90.60
2023-04-07T19:37:09.741Z,90.70
2023-04-07T19:39:38.086Z,90.80
2023-04-07T19:42:06.411Z,91.30
2023-04-07T19:44:35.346Z,91.10
2023-04-07T19:47:03.760Z,91.20
2023-04-07T19:49:32.252Z,91.30
2023-04-07T19:52:00.501Z,91.40
2023-04-07T19:54:30.290Z,91.40
2023-04-07T19:56:58.756Z,91.60
2023-04-07T19:59:27.123Z,91.60
2023-04-07T20:01:55.591Z,91.70
2023-04-07T20:04:24.002Z,91.70
2023-04-07T20:06:52.336Z,91.80
2023-04-07T20:09:22.807Z,91.80
2023-04-07T20:11:52.820Z,91.80
2023-04-07T20:14:21.602Z,92.20
2023-04-07T20:16:49.954Z,92.00
2023-04-07T20:19:18.275Z,92.10
2023-04-07T20:21:46.775Z,92.40
2023-04-07T20:24:15.498Z,92.20
2023-04-07T20:26:44.436Z,92.20
2023-04-07T20:29:14.204Z,92.10
2023-04-07T20:31:42.550Z,91.60
2023-04-07T20:34:10.866Z,91.10
2023-04-07T20:36:39.156Z,91.10
2023-04-07T20:39:07.509Z,91.10
2023-04-07T20:41:35.829Z,91.10
2023-04-07T20:44:04.483Z,91.10
2023-04-07T20:46:34.534Z,91.20
2023-04-07T20:49:03.994Z,91.60
2023-04-07T20:51:32.355Z,91.80
2023-04-07T20:54:00.624Z,91.90
2023-04-07T20:56:29.279Z,91.90
2023-04-07T20:58:57.618Z,91.90
2023-04-07T21:01:26.295Z,91.70
2023-04-07T21:03:56.197Z,91.70
2023-04-07T21:06:24.546Z,92.00
2023-04-07T21:08:52.861Z,92.10
2023-04-07T21:11:21.861Z,92.20
2023-04-07T21:13:50.198Z,92.30
2023-04-07T21:16:19.186Z,92.00
2023-04-07T21:18:47.785Z,92.00
2023-04-07T21:21:17.762Z,92.10
2023-04-07T21:23:46.232Z,92.20
2023-04-07T21:26:14.628Z,92.40
2023-04-07T21:28:43.015Z,92.50
2023-04-07T21:31:11.520Z,92.60
2023-04-07T21:33:40.435Z,92.80
2023-04-07T21:36:09.145Z,92.80
2023-04-07T21:38:39.012Z,92.90
2023-04-07T21:41:07.598Z,93.00
2023-04-07T21:43:36.528Z,93.00
2023-04-07T21:46:04.940Z,93.10
2023-04-07T21:48:34.878Z,93.30
2023-04-07T21:51:03.309Z,93.40
2023-04-07T21:53:32.049Z,93.50
2023-04-07T21:56:01.875Z,93.50
2023-04-07T21:58:30.509Z,93.60
2023-04-07T22:00:58.870Z,93.70
2023-04-07T22:03:29.629Z,93.70
2023-04-07T22:06:00.472Z,93.70
2023-04-07T22:08:28.916Z,93.70
2023-04-07T22:10:58.780Z,93.70
2023-04-07T22:13:28.606Z,93.70
2023-04-07T22:15:57.156Z,93.70
2023-04-07T22:18:25.624Z,93.70
2023-04-07T22:20:53.988Z,93.80
2023-04-07T22:23:22.290Z,93.80
2023-04-07T22:25:50.753Z,93.70
2023-04-07T22:28:19.173Z,93.90
2023-04-07T22:30:48.969Z,94.00
2023-04-07T22:33:17.320Z,94.10
2023-04-07T22:35:45.781Z,94.30
2023-04-07T22:38:17.349Z,94.30
2023-04-07T22:40:46.080Z,94.40
2023-04-07T22:43:14.490Z,94.40
2023-04-07T22:45:42.934Z,94.30
2023-04-07T22:48:12.698Z,94.30
2023-04-07T22:50:41.308Z,94.40
2023-04-07T22:53:09.971Z,94.50
2023-04-07T22:55:38.317Z,94.60
2023-04-07T22:58:06.627Z,94.70
2023-04-07T23:00:35.059Z,94.80
2023-04-07T23:03:03.502Z,94.90
2023-04-07T23:05:33.352Z,95.00
2023-04-07T23:08:01.771Z,95.00
2023-04-07T23:10:31.455Z,95.00
2023-04-07T23:13:00.113Z,95.10
2023-04-07T23:15:28.434Z,95.20
2023-04-07T23:17:56.853Z,95.30
2023-04-07T23:20:25.188Z,95.40
2023-04-07T23:22:54.966Z,95.40
2023-04-07T23:25:23.470Z,95.40
2023-04-07T23:27:51.909Z,95.40
2023-04-07T23:30:20.642Z,95.40
2023-04-07T23:32:49.003Z,95.40
2023-04-07T23:35:17.785Z,95.50
2023-04-07T23:37:46.100Z,95.60
2023-04-07T23:40:16.413Z,95.70
2023-04-07T23:42:44.682Z,95.70
2023-04-07T23:45:13.429Z,95.70
2023-04-07T23:47:41.775Z,95.70
2023-04-07T23:50:10.871Z,95.80
2023-04-07T23:52:39.247Z,95.80
2023-04-07T23:55:08.366Z,95.80
2023-04-07T23:57:38.158Z,95.80
